Etusivu
METAR-TAF:

METAR-TAF

Lentoasemat :

Frederick, Oklahoma, Yhdysvallat

Leveyspiiri: 34-20-40N, Pituuspiiri: 098-58-59W, korkeus merenpinnasta: 382 m

Tämänhetkinen sää

Tämä raportti tehtiin 1 tunti ja 2 minuuttia sitten, kello 23.53 UTC
Tuuli 17 kn kaakosta
Lämpötila 31°C
Kosteus 49%
Ilmanpaine 1004 hPa
Näkyvyys: 16.1 km
Muutamia pilviä 6000 ft:n korkeudessa

METAR: KFDR 242353Z AUTO 13017KT 10SM FEW060 31/19 A2965 RMK AO2 SLP022 T03060194 10311 20294 56020

Aika: 19:55 (00:55 UTC)


TAF: puuttuu

Säähavainnot ja -ennusteet yli 4000 lentoasemalta (METAR- ja TAF-raportit).

Käytössä olevat sääasemat on merkitty karttaan keltaisilla ja punaisilla pisteillä.

Aseta hiiri pisteen päälle nähdäksesi sääaseman nimen.

Klikkaa sitten nähdäksesi säähavainnot ja -ennusteet.

Kartan vaihtaminen: klikkaa mustalla rastilla varustettuja vihreitä pisteitä, niin voit zoomata sisään; viivalla varustettua vihreää pistettä, niin voit zoomata ulos tai vihreitä nuolia, niin pääset viereisille kartoille.


METAR-TAF: